Tottenham, Canada
Current Conditions -  °F | °C
As of 1:00 AM on Wednesday 28 Jan 2015 (Local Time) from CYBN Reporting Station
Clear Clear  
Wind Chill:   Ceiling: Unl
Heat Index:   Visibility: 9mi
Dew Point: -8°   Wind: 2mph
Humidity: 72%   Direction: 30°NNE
Pressure: 30.15"   Gusts: NA
Location:  44.02°N, 79.8°W
Report Text: CYBN 280600Z AUTO 03002KT 9SM CLR M18/M22 A3015 RMK SLP229
Loading
Personal Weather Stations






























Interactive Weather Map New forecast layout! Learn more

10-Day Weather Forecast

Advertisements
Track Severe Weather on mobile